sensor_id;sensor_type;location;lat;lon;timestamp;P1;durP1;ratioP1;P2;durP2;ratioP2
61741;SDS011;47650;49.848;9.620;2023-07-29T00:00:40;7.43;;;6.72;;
61741;SDS011;47650;49.848;9.620;2023-07-29T00:03:06;6.90;;;6.30;;
61741;SDS011;47650;49.848;9.620;2023-07-29T00:05:34;8.25;;;7.22;;
61741;SDS011;47650;49.848;9.620;2023-07-29T00:07:59;8.45;;;7.63;;
61741;SDS011;47650;49.848;9.620;2023-07-29T00:10:25;9.82;;;8.40;;
61741;SDS011;47650;49.848;9.620;2023-07-29T00:12:51;7.88;;;6.60;;
61741;SDS011;47650;49.848;9.620;2023-07-29T00:15:17;10.38;;;8.75;;
61741;SDS011;47650;49.848;9.620;2023-07-29T00:17:43;8.52;;;7.72;;
61741;SDS011;47650;49.848;9.620;2023-07-29T00:20:08;12.73;;;10.05;;
61741;SDS011;47650;49.848;9.620;2023-07-29T00:22:33;12.52;;;10.20;;
61741;SDS011;47650;49.848;9.620;2023-07-29T00:24:59;12.07;;;10.20;;
61741;SDS011;47650;49.848;9.620;2023-07-29T00:27:24;10.63;;;9.32;;
61741;SDS011;47650;49.848;9.620;2023-07-29T00:29:50;15.88;;;10.43;;
61741;SDS011;47650;49.848;9.620;2023-07-29T00:32:15;11.85;;;8.07;;
61741;SDS011;47650;49.848;9.620;2023-07-29T00:34:40;12.88;;;8.77;;
61741;SDS011;47650;49.848;9.620;2023-07-29T00:37:07;10.48;;;8.88;;
61741;SDS011;47650;49.848;9.620;2023-07-29T00:39:32;12.88;;;9.82;;
61741;SDS011;47650;49.848;9.620;2023-07-29T00:41:58;12.82;;;9.40;;
61741;SDS011;47650;49.848;9.620;2023-07-29T00:44:23;9.57;;;7.22;;
61741;SDS011;47650;49.848;9.620;2023-07-29T00:46:49;8.63;;;7.68;;
61741;SDS011;47650;49.848;9.620;2023-07-29T00:49:17;7.88;;;7.07;;
61741;SDS011;47650;49.848;9.620;2023-07-29T00:51:43;6.68;;;6.05;;
61741;SDS011;47650;49.848;9.620;2023-07-29T00:54:08;9.32;;;7.93;;
61741;SDS011;47650;49.848;9.620;2023-07-29T00:56:34;12.23;;;7.30;;
61741;SDS011;47650;49.848;9.620;2023-07-29T00:59:01;10.88;;;8.38;;
61741;SDS011;47650;49.848;9.620;2023-07-29T01:01:30;8.95;;;8.13;;
61741;SDS011;47650;49.848;9.620;2023-07-29T01:03:56;10.40;;;7.35;;
61741;SDS011;47650;49.848;9.620;2023-07-29T01:06:24;8.88;;;7.97;;
61741;SDS011;47650;49.848;9.620;2023-07-29T01:12:06;9.02;;;7.95;;
61741;SDS011;47650;49.848;9.620;2023-07-29T01:17:22;13.68;;;10.75;;
61741;SDS011;47650;49.848;9.620;2023-07-29T01:19:59;15.00;;;9.32;;
61741;SDS011;47650;49.848;9.620;2023-07-29T01:22:31;12.43;;;10.60;;
61741;SDS011;47650;49.848;9.620;2023-07-29T01:24:58;14.52;;;11.23;;
61741;SDS011;47650;49.848;9.620;2023-07-29T01:27:24;14.55;;;11.13;;
61741;SDS011;47650;49.848;9.620;2023-07-29T01:29:50;11.68;;;10.45;;
61741;SDS011;47650;49.848;9.620;2023-07-29T01:33:00;15.15;;;12.35;;
61741;SDS011;47650;49.848;9.620;2023-07-29T01:35:24;12.45;;;10.98;;
61741;SDS011;47650;49.848;9.620;2023-07-29T01:37:51;13.83;;;11.70;;
61741;SDS011;47650;49.848;9.620;2023-07-29T01:40:22;13.75;;;12.05;;
61741;SDS011;47650;49.848;9.620;2023-07-29T01:42:48;14.00;;;12.57;;
61741;SDS011;47650;49.848;9.620;2023-07-29T01:45:14;17.30;;;12.93;;
61741;SDS011;47650;49.848;9.620;2023-07-29T01:47:39;14.30;;;12.63;;
61741;SDS011;47650;49.848;9.620;2023-07-29T01:50:06;13.93;;;10.23;;
61741;SDS011;47650;49.848;9.620;2023-07-29T01:52:32;11.30;;;10.30;;
61741;SDS011;47650;49.848;9.620;2023-07-29T01:54:57;18.20;;;12.75;;
61741;SDS011;47650;49.848;9.620;2023-07-29T01:57:23;15.05;;;12.65;;
61741;SDS011;47650;49.848;9.620;2023-07-29T01:59:48;17.08;;;13.20;;
61741;SDS011;47650;49.848;9.620;2023-07-29T02:02:13;12.55;;;10.10;;
61741;SDS011;47650;49.848;9.620;2023-07-29T02:04:39;8.90;;;7.97;;
61741;SDS011;47650;49.848;9.620;2023-07-29T02:07:05;11.90;;;10.25;;
61741;SDS011;47650;49.848;9.620;2023-07-29T02:09:31;12.23;;;10.23;;
61741;SDS011;47650;49.848;9.620;2023-07-29T02:11:57;13.70;;;11.85;;
61741;SDS011;47650;49.848;9.620;2023-07-29T02:14:22;12.70;;;11.07;;
61741;SDS011;47650;49.848;9.620;2023-07-29T02:16:47;13.88;;;10.57;;
61741;SDS011;47650;49.848;9.620;2023-07-29T02:19:13;12.73;;;9.90;;
61741;SDS011;47650;49.848;9.620;2023-07-29T02:21:38;11.50;;;8.75;;
61741;SDS011;47650;49.848;9.620;2023-07-29T02:24:05;14.77;;;10.63;;
61741;SDS011;47650;49.848;9.620;2023-07-29T02:26:30;11.80;;;9.70;;
61741;SDS011;47650;49.848;9.620;2023-07-29T02:28:56;16.02;;;11.65;;
61741;SDS011;47650;49.848;9.620;2023-07-29T02:31:21;11.35;;;10.15;;
61741;SDS011;47650;49.848;9.620;2023-07-29T02:33:49;14.60;;;9.50;;
61741;SDS011;47650;49.848;9.620;2023-07-29T02:36:15;10.68;;;9.55;;
61741;SDS011;47650;49.848;9.620;2023-07-29T02:38:41;11.43;;;8.52;;
61741;SDS011;47650;49.848;9.620;2023-07-29T02:41:07;12.15;;;8.30;;
61741;SDS011;47650;49.848;9.620;2023-07-29T02:43:36;11.70;;;8.02;;
61741;SDS011;47650;49.848;9.620;2023-07-29T02:46:01;16.73;;;10.65;;
61741;SDS011;47650;49.848;9.620;2023-07-29T02:48:27;16.30;;;9.52;;
61741;SDS011;47650;49.848;9.620;2023-07-29T02:50:54;11.88;;;8.65;;
61741;SDS011;47650;49.848;9.620;2023-07-29T02:53:21;25.30;;;14.90;;
61741;SDS011;47650;49.848;9.620;2023-07-29T02:55:48;27.90;;;17.15;;
61741;SDS011;47650;49.848;9.620;2023-07-29T02:58:13;27.40;;;18.17;;
61741;SDS011;47650;49.848;9.620;2023-07-29T03:00:39;59.50;;;22.95;;
61741;SDS011;47650;49.848;9.620;2023-07-29T03:03:07;46.90;;;26.30;;
61741;SDS011;47650;49.848;9.620;2023-07-29T03:05:34;34.80;;;22.73;;
61741;SDS011;47650;49.848;9.620;2023-07-29T03:08:04;60.13;;;24.65;;
61741;SDS011;47650;49.848;9.620;2023-07-29T03:10:30;25.80;;;18.83;;
61741;SDS011;47650;49.848;9.620;2023-07-29T03:12:57;42.03;;;21.52;;
61741;SDS011;47650;49.848;9.620;2023-07-29T03:15:23;42.70;;;17.73;;
61741;SDS011;47650;49.848;9.620;2023-07-29T03:17:50;104.93;;;21.95;;
61741;SDS011;47650;49.848;9.620;2023-07-29T03:20:15;148.63;;;25.30;;
61741;SDS011;47650;49.848;9.620;2023-07-29T03:22:42;45.33;;;25.00;;
61741;SDS011;47650;49.848;9.620;2023-07-29T03:25:08;28.45;;;18.50;;
61741;SDS011;47650;49.848;9.620;2023-07-29T03:27:33;23.08;;;18.20;;
61741;SDS011;47650;49.848;9.620;2023-07-29T03:30:01;17.95;;;13.43;;
61741;SDS011;47650;49.848;9.620;2023-07-29T03:32:27;18.02;;;13.77;;
61741;SDS011;47650;49.848;9.620;2023-07-29T03:34:52;42.38;;;23.90;;
61741;SDS011;47650;49.848;9.620;2023-07-29T03:37:19;19.15;;;15.15;;
61741;SDS011;47650;49.848;9.620;2023-07-29T03:39:46;24.92;;;18.08;;
61741;SDS011;47650;49.848;9.620;2023-07-29T03:42:12;30.73;;;20.73;;
61741;SDS011;47650;49.848;9.620;2023-07-29T03:44:38;24.02;;;15.60;;
61741;SDS011;47650;49.848;9.620;2023-07-29T03:47:05;46.58;;;28.50;;
61741;SDS011;47650;49.848;9.620;2023-07-29T03:49:31;25.27;;;18.48;;
61741;SDS011;47650;49.848;9.620;2023-07-29T03:51:56;39.88;;;24.48;;
61741;SDS011;47650;49.848;9.620;2023-07-29T03:54:22;26.27;;;18.40;;
61741;SDS011;47650;49.848;9.620;2023-07-29T03:56:47;43.58;;;26.38;;
61741;SDS011;47650;49.848;9.620;2023-07-29T03:59:12;48.13;;;26.23;;
61741;SDS011;47650;49.848;9.620;2023-07-29T04:01:38;62.13;;;31.38;;
61741;SDS011;47650;49.848;9.620;2023-07-29T04:04:03;48.38;;;27.38;;
61741;SDS011;47650;49.848;9.620;2023-07-29T04:06:29;70.82;;;30.83;;
61741;SDS011;47650;49.848;9.620;2023-07-29T04:08:54;68.90;;;29.63;;
61741;SDS011;47650;49.848;9.620;2023-07-29T04:11:20;57.92;;;28.55;;
61741;SDS011;47650;49.848;9.620;2023-07-29T04:13:46;37.33;;;23.05;;
61741;SDS011;47650;49.848;9.620;2023-07-29T04:16:11;27.50;;;19.15;;
61741;SDS011;47650;49.848;9.620;2023-07-29T04:18:37;27.15;;;18.50;;
61741;SDS011;47650;49.848;9.620;2023-07-29T04:21:03;18.17;;;14.38;;
61741;SDS011;47650;49.848;9.620;2023-07-29T04:23:28;20.30;;;14.80;;
61741;SDS011;47650;49.848;9.620;2023-07-29T04:25:54;32.28;;;20.70;;
61741;SDS011;47650;49.848;9.620;2023-07-29T04:28:19;49.58;;;26.05;;
61741;SDS011;47650;49.848;9.620;2023-07-29T04:30:45;51.15;;;26.42;;
61741;SDS011;47650;49.848;9.620;2023-07-29T04:33:12;34.63;;;20.00;;
61741;SDS011;47650;49.848;9.620;2023-07-29T04:35:37;37.60;;;21.63;;
61741;SDS011;47650;49.848;9.620;2023-07-29T04:38:04;19.73;;;15.77;;
61741;SDS011;47650;49.848;9.620;2023-07-29T04:40:32;40.40;;;20.73;;
61741;SDS011;47650;49.848;9.620;2023-07-29T04:42:59;28.30;;;18.88;;
61741;SDS011;47650;49.848;9.620;2023-07-29T04:45:29;28.45;;;18.65;;
61741;SDS011;47650;49.848;9.620;2023-07-29T04:47:55;22.92;;;16.50;;
61741;SDS011;47650;49.848;9.620;2023-07-29T04:50:21;38.13;;;23.30;;
61741;SDS011;47650;49.848;9.620;2023-07-29T04:52:47;55.15;;;28.60;;
61741;SDS011;47650;49.848;9.620;2023-07-29T04:55:13;41.40;;;24.23;;
61741;SDS011;47650;49.848;9.620;2023-07-29T04:57:38;41.88;;;23.20;;
61741;SDS011;47650;49.848;9.620;2023-07-29T05:00:05;37.10;;;20.63;;
61741;SDS011;47650;49.848;9.620;2023-07-29T05:02:31;23.25;;;16.17;;
61741;SDS011;47650;49.848;9.620;2023-07-29T05:04:56;35.17;;;19.48;;
61741;SDS011;47650;49.848;9.620;2023-07-29T05:07:21;41.58;;;23.33;;
61741;SDS011;47650;49.848;9.620;2023-07-29T05:09:47;33.75;;;20.33;;
61741;SDS011;47650;49.848;9.620;2023-07-29T05:12:12;44.78;;;24.98;;
61741;SDS011;47650;49.848;9.620;2023-07-29T05:14:38;40.92;;;23.30;;
61741;SDS011;47650;49.848;9.620;2023-07-29T05:17:03;43.80;;;23.55;;
61741;SDS011;47650;49.848;9.620;2023-07-29T05:19:28;33.03;;;20.13;;
61741;SDS011;47650;49.848;9.620;2023-07-29T05:21:54;39.78;;;22.55;;
61741;SDS011;47650;49.848;9.620;2023-07-29T05:24:19;19.50;;;14.95;;
61741;SDS011;47650;49.848;9.620;2023-07-29T05:26:44;13.60;;;11.27;;
61741;SDS011;47650;49.848;9.620;2023-07-29T05:29:10;16.08;;;12.63;;
61741;SDS011;47650;49.848;9.620;2023-07-29T05:31:35;14.40;;;10.93;;
61741;SDS011;47650;49.848;9.620;2023-07-29T05:34:00;12.32;;;9.65;;
61741;SDS011;47650;49.848;9.620;2023-07-29T05:36:27;9.90;;;8.35;;
61741;SDS011;47650;49.848;9.620;2023-07-29T05:38:52;11.73;;;9.80;;
61741;SDS011;47650;49.848;9.620;2023-07-29T05:41:18;19.25;;;14.73;;
61741;SDS011;47650;49.848;9.620;2023-07-29T05:43:43;13.98;;;11.70;;
61741;SDS011;47650;49.848;9.620;2023-07-29T05:46:08;14.07;;;10.52;;
61741;SDS011;47650;49.848;9.620;2023-07-29T05:48:35;5.22;;;4.50;;
61741;SDS011;47650;49.848;9.620;2023-07-29T05:51:01;4.53;;;3.78;;
61741;SDS011;47650;49.848;9.620;2023-07-29T05:53:26;4.13;;;3.58;;
61741;SDS011;47650;49.848;9.620;2023-07-29T05:55:52;6.07;;;4.63;;
61741;SDS011;47650;49.848;9.620;2023-07-29T05:58:17;7.07;;;4.30;;
61741;SDS011;47650;49.848;9.620;2023-07-29T06:00:42;5.63;;;3.58;;
61741;SDS011;47650;49.848;9.620;2023-07-29T06:03:07;5.18;;;3.83;;
61741;SDS011;47650;49.848;9.620;2023-07-29T06:05:33;5.72;;;3.80;;
61741;SDS011;47650;49.848;9.620;2023-07-29T06:07:58;5.22;;;3.88;;
61741;SDS011;47650;49.848;9.620;2023-07-29T06:10:23;6.15;;;3.80;;
61741;SDS011;47650;49.848;9.620;2023-07-29T06:12:49;5.05;;;3.33;;
61741;SDS011;47650;49.848;9.620;2023-07-29T06:15:14;8.63;;;4.43;;
61741;SDS011;47650;49.848;9.620;2023-07-29T06:17:41;6.40;;;3.30;;
61741;SDS011;47650;49.848;9.620;2023-07-29T06:20:08;7.70;;;3.70;;
61741;SDS011;47650;49.848;9.620;2023-07-29T06:22:34;6.53;;;3.40;;
61741;SDS011;47650;49.848;9.620;2023-07-29T06:25:00;6.55;;;3.20;;
61741;SDS011;47650;49.848;9.620;2023-07-29T06:27:25;5.82;;;3.20;;
61741;SDS011;47650;49.848;9.620;2023-07-29T06:29:51;4.15;;;3.15;;
61741;SDS011;47650;49.848;9.620;2023-07-29T06:32:19;5.47;;;3.70;;
61741;SDS011;47650;49.848;9.620;2023-07-29T06:34:44;5.38;;;3.47;;
61741;SDS011;47650;49.848;9.620;2023-07-29T06:37:11;4.25;;;3.00;;
61741;SDS011;47650;49.848;9.620;2023-07-29T06:39:37;5.10;;;3.35;;
61741;SDS011;47650;49.848;9.620;2023-07-29T06:42:03;4.85;;;3.13;;
61741;SDS011;47650;49.848;9.620;2023-07-29T06:44:29;7.95;;;2.80;;
61741;SDS011;47650;49.848;9.620;2023-07-29T06:46:57;4.93;;;3.70;;
61741;SDS011;47650;49.848;9.620;2023-07-29T06:49:23;9.45;;;4.47;;
61741;SDS011;47650;49.848;9.620;2023-07-29T06:51:48;6.93;;;4.00;;
61741;SDS011;47650;49.848;9.620;2023-07-29T06:54:15;8.30;;;5.95;;
61741;SDS011;47650;49.848;9.620;2023-07-29T06:56:41;6.35;;;4.30;;
61741;SDS011;47650;49.848;9.620;2023-07-29T06:59:06;6.18;;;3.28;;
61741;SDS011;47650;49.848;9.620;2023-07-29T07:01:33;7.05;;;3.72;;
61741;SDS011;47650;49.848;9.620;2023-07-29T07:04:00;5.30;;;2.90;;
61741;SDS011;47650;49.848;9.620;2023-07-29T07:06:25;4.70;;;2.90;;
61741;SDS011;47650;49.848;9.620;2023-07-29T07:08:52;4.53;;;3.78;;
61741;SDS011;47650;49.848;9.620;2023-07-29T07:11:18;5.05;;;2.92;;
61741;SDS011;47650;49.848;9.620;2023-07-29T07:13:43;5.82;;;3.80;;
61741;SDS011;47650;49.848;9.620;2023-07-29T07:16:09;5.00;;;2.25;;
61741;SDS011;47650;49.848;9.620;2023-07-29T07:18:35;3.97;;;1.60;;
61741;SDS011;47650;49.848;9.620;2023-07-29T07:21:01;3.17;;;1.63;;
61741;SDS011;47650;49.848;9.620;2023-07-29T07:23:26;2.20;;;1.40;;
61741;SDS011;47650;49.848;9.620;2023-07-29T07:25:56;3.33;;;1.73;;
61741;SDS011;47650;49.848;9.620;2023-07-29T07:28:22;1.77;;;1.42;;
61741;SDS011;47650;49.848;9.620;2023-07-29T07:30:48;2.33;;;2.10;;
61741;SDS011;47650;49.848;9.620;2023-07-29T07:33:13;4.25;;;1.73;;
61741;SDS011;47650;49.848;9.620;2023-07-29T07:35:40;1.73;;;1.50;;
61741;SDS011;47650;49.848;9.620;2023-07-29T07:38:08;1.95;;;1.40;;
61741;SDS011;47650;49.848;9.620;2023-07-29T07:40:35;2.47;;;1.30;;
61741;SDS011;47650;49.848;9.620;2023-07-29T07:43:02;2.25;;;1.40;;
61741;SDS011;47650;49.848;9.620;2023-07-29T07:45:27;3.65;;;1.25;;
61741;SDS011;47650;49.848;9.620;2023-07-29T07:47:54;1.92;;;1.20;;
61741;SDS011;47650;49.848;9.620;2023-07-29T07:50:25;1.73;;;1.27;;
61741;SDS011;47650;49.848;9.620;2023-07-29T07:52:56;1.23;;;1.08;;
61741;SDS011;47650;49.848;9.620;2023-07-29T07:55:21;2.92;;;1.00;;
61741;SDS011;47650;49.848;9.620;2023-07-29T07:57:46;43.10;;;2.72;;
61741;SDS011;47650;49.848;9.620;2023-07-29T08:00:12;37.65;;;3.17;;
61741;SDS011;47650;49.848;9.620;2023-07-29T08:02:40;9.95;;;3.10;;
61741;SDS011;47650;49.848;9.620;2023-07-29T08:05:06;8.77;;;3.72;;
61741;SDS011;47650;49.848;9.620;2023-07-29T08:07:32;12.27;;;4.28;;
61741;SDS011;47650;49.848;9.620;2023-07-29T08:09:57;52.05;;;4.53;;
61741;SDS011;47650;49.848;9.620;2023-07-29T08:12:23;95.80;;;6.35;;
61741;SDS011;47650;49.848;9.620;2023-07-29T08:14:48;55.22;;;4.38;;
61741;SDS011;47650;49.848;9.620;2023-07-29T08:17:15;6.32;;;2.92;;
61741;SDS011;47650;49.848;9.620;2023-07-29T08:19:43;8.32;;;3.15;;
61741;SDS011;47650;49.848;9.620;2023-07-29T08:22:08;56.58;;;4.55;;
61741;SDS011;47650;49.848;9.620;2023-07-29T08:24:34;4.25;;;2.10;;
61741;SDS011;47650;49.848;9.620;2023-07-29T08:26:59;13.18;;;2.38;;
61741;SDS011;47650;49.848;9.620;2023-07-29T08:29:26;9.10;;;2.30;;
61741;SDS011;47650;49.848;9.620;2023-07-29T08:31:51;8.13;;;2.83;;
61741;SDS011;47650;49.848;9.620;2023-07-29T08:34:16;4.35;;;2.60;;
61741;SDS011;47650;49.848;9.620;2023-07-29T08:36:42;4.43;;;2.58;;
61741;SDS011;47650;49.848;9.620;2023-07-29T08:39:08;2.30;;;1.80;;
61741;SDS011;47650;49.848;9.620;2023-07-29T08:41:42;3.25;;;1.85;;
61741;SDS011;47650;49.848;9.620;2023-07-29T08:44:09;6.13;;;1.77;;
61741;SDS011;47650;49.848;9.620;2023-07-29T08:46:42;6.40;;;3.05;;
61741;SDS011;47650;49.848;9.620;2023-07-29T08:49:08;5.35;;;2.65;;
61741;SDS011;47650;49.848;9.620;2023-07-29T08:51:36;3.95;;;1.77;;
61741;SDS011;47650;49.848;9.620;2023-07-29T08:54:03;4.00;;;1.70;;
61741;SDS011;47650;49.848;9.620;2023-07-29T08:56:29;2.60;;;1.30;;
61741;SDS011;47650;49.848;9.620;2023-07-29T08:58:56;4.10;;;1.40;;
61741;SDS011;47650;49.848;9.620;2023-07-29T09:01:25;1.77;;;1.10;;
61741;SDS011;47650;49.848;9.620;2023-07-29T09:03:50;4.05;;;1.08;;
61741;SDS011;47650;49.848;9.620;2023-07-29T09:06:15;1.52;;;1.30;;
61741;SDS011;47650;49.848;9.620;2023-07-29T09:08:41;8.82;;;1.50;;
61741;SDS011;47650;49.848;9.620;2023-07-29T09:11:08;1.15;;;1.00;;
61741;SDS011;47650;49.848;9.620;2023-07-29T09:13:34;4.95;;;1.70;;
61741;SDS011;47650;49.848;9.620;2023-07-29T09:16:00;2.53;;;1.70;;
61741;SDS011;47650;49.848;9.620;2023-07-29T09:18:25;1.70;;;1.20;;
61741;SDS011;47650;49.848;9.620;2023-07-29T09:20:52;3.38;;;1.42;;
61741;SDS011;47650;49.848;9.620;2023-07-29T09:23:18;4.65;;;2.50;;
61741;SDS011;47650;49.848;9.620;2023-07-29T09:25:43;2.33;;;1.45;;
61741;SDS011;47650;49.848;9.620;2023-07-29T09:28:12;1.50;;;1.13;;
61741;SDS011;47650;49.848;9.620;2023-07-29T09:30:40;1.73;;;1.20;;
61741;SDS011;47650;49.848;9.620;2023-07-29T09:33:09;1.30;;;1.05;;
61741;SDS011;47650;49.848;9.620;2023-07-29T09:35:37;1.77;;;1.02;;
61741;SDS011;47650;49.848;9.620;2023-07-29T09:38:03;3.00;;;1.10;;
61741;SDS011;47650;49.848;9.620;2023-07-29T09:40:35;2.00;;;1.50;;
61741;SDS011;47650;49.848;9.620;2023-07-29T09:43:02;2.72;;;2.53;;
61741;SDS011;47650;49.848;9.620;2023-07-29T09:45:30;3.72;;;3.00;;
61741;SDS011;47650;49.848;9.620;2023-07-29T09:47:59;3.65;;;3.35;;
61741;SDS011;47650;49.848;9.620;2023-07-29T09:50:28;2.60;;;2.40;;
61741;SDS011;47650;49.848;9.620;2023-07-29T09:52:55;4.55;;;3.15;;
61741;SDS011;47650;49.848;9.620;2023-07-29T09:55:25;3.90;;;1.70;;
61741;SDS011;47650;49.848;9.620;2023-07-29T09:57:56;3.30;;;3.00;;
61741;SDS011;47650;49.848;9.620;2023-07-29T10:00:29;3.50;;;2.00;;
61741;SDS011;47650;49.848;9.620;2023-07-29T10:02:55;1.88;;;1.77;;
61741;SDS011;47650;49.848;9.620;2023-07-29T10:05:21;2.83;;;2.53;;
61741;SDS011;47650;49.848;9.620;2023-07-29T10:07:50;2.70;;;2.50;;
61741;SDS011;47650;49.848;9.620;2023-07-29T10:10:15;3.05;;;2.30;;
61741;SDS011;47650;49.848;9.620;2023-07-29T10:12:43;2.90;;;2.70;;
61741;SDS011;47650;49.848;9.620;2023-07-29T10:15:08;4.03;;;2.60;;
61741;SDS011;47650;49.848;9.620;2023-07-29T10:17:35;2.58;;;2.20;;
61741;SDS011;47650;49.848;9.620;2023-07-29T10:20:06;2.63;;;2.42;;
61741;SDS011;47650;49.848;9.620;2023-07-29T10:22:34;3.00;;;2.38;;
61741;SDS011;47650;49.848;9.620;2023-07-29T10:25:46;2.60;;;2.40;;
61741;SDS011;47650;49.848;9.620;2023-07-29T10:27:56;2.60;;;2.40;;
61741;SDS011;47650;49.848;9.620;2023-07-29T10:30:30;2.40;;;2.20;;
61741;SDS011;47650;49.848;9.620;2023-07-29T10:32:56;3.45;;;2.20;;
61741;SDS011;47650;49.848;9.620;2023-07-29T10:35:23;2.72;;;2.50;;
61741;SDS011;47650;49.848;9.620;2023-07-29T10:37:53;1.80;;;1.33;;
61741;SDS011;47650;49.848;9.620;2023-07-29T10:40:18;5.55;;;2.05;;
61741;SDS011;47650;49.848;9.620;2023-07-29T10:43:01;5.68;;;3.25;;
61741;SDS011;47650;49.848;9.620;2023-07-29T10:45:28;2.28;;;1.50;;
61741;SDS011;47650;49.848;9.620;2023-07-29T10:48:06;2.50;;;1.25;;
61741;SDS011;47650;49.848;9.620;2023-07-29T10:50:38;3.22;;;1.30;;
61741;SDS011;47650;49.848;9.620;2023-07-29T10:53:04;3.10;;;2.80;;
61741;SDS011;47650;49.848;9.620;2023-07-29T10:58:04;2.38;;;1.35;;
61741;SDS011;47650;49.848;9.620;2023-07-29T11:00:42;2.33;;;1.98;;
61741;SDS011;47650;49.848;9.620;2023-07-29T11:03:11;3.58;;;1.50;;
61741;SDS011;47650;49.848;9.620;2023-07-29T11:05:50;3.38;;;2.50;;
61741;SDS011;47650;49.848;9.620;2023-07-29T11:08:30;2.08;;;1.75;;
61741;SDS011;47650;49.848;9.620;2023-07-29T11:11:06;3.28;;;2.35;;
61741;SDS011;47650;49.848;9.620;2023-07-29T11:13:34;2.20;;;2.10;;
61741;SDS011;47650;49.848;9.620;2023-07-29T11:16:00;2.25;;;2.05;;
61741;SDS011;47650;49.848;9.620;2023-07-29T11:18:31;2.47;;;2.28;;
61741;SDS011;47650;49.848;9.620;2023-07-29T11:20:59;11.50;;;2.88;;
61741;SDS011;47650;49.848;9.620;2023-07-29T11:23:31;2.78;;;2.58;;
61741;SDS011;47650;49.848;9.620;2023-07-29T11:26:00;2.85;;;2.30;;
61741;SDS011;47650;49.848;9.620;2023-07-29T11:28:37;2.40;;;2.20;;
61741;SDS011;47650;49.848;9.620;2023-07-29T11:31:05;3.30;;;2.25;;
61741;SDS011;47650;49.848;9.620;2023-07-29T11:33:31;2.28;;;2.08;;
61741;SDS011;47650;49.848;9.620;2023-07-29T11:35:56;7.00;;;1.75;;
61741;SDS011;47650;49.848;9.620;2023-07-29T11:38:22;3.00;;;2.10;;
61741;SDS011;47650;49.848;9.620;2023-07-29T11:40:54;1.85;;;1.45;;
61741;SDS011;47650;49.848;9.620;2023-07-29T11:45:49;3.67;;;1.73;;
61741;SDS011;47650;49.848;9.620;2023-07-29T11:48:17;2.05;;;1.52;;
61741;SDS011;47650;49.848;9.620;2023-07-29T11:50:42;1.87;;;1.63;;
61741;SDS011;47650;49.848;9.620;2023-07-29T11:53:09;1.90;;;1.60;;
61741;SDS011;47650;49.848;9.620;2023-07-29T11:55:39;2.35;;;1.90;;
61741;SDS011;47650;49.848;9.620;2023-07-29T11:58:04;2.42;;;1.80;;
61741;SDS011;47650;49.848;9.620;2023-07-29T12:00:34;3.38;;;2.47;;
61741;SDS011;47650;49.848;9.620;2023-07-29T12:02:59;2.38;;;1.70;;
61741;SDS011;47650;49.848;9.620;2023-07-29T12:05:25;3.00;;;1.75;;
61741;SDS011;47650;49.848;9.620;2023-07-29T12:07:50;1.80;;;1.60;;
61741;SDS011;47650;49.848;9.620;2023-07-29T12:10:16;2.10;;;1.70;;
61741;SDS011;47650;49.848;9.620;2023-07-29T12:12:45;1.70;;;1.60;;
61741;SDS011;47650;49.848;9.620;2023-07-29T12:15:27;2.78;;;1.85;;
61741;SDS011;47650;49.848;9.620;2023-07-29T12:17:57;2.08;;;1.92;;
61741;SDS011;47650;49.848;9.620;2023-07-29T12:20:23;2.38;;;2.17;;
61741;SDS011;47650;49.848;9.620;2023-07-29T12:22:53;2.13;;;1.90;;
61741;SDS011;47650;49.848;9.620;2023-07-29T12:25:20;2.20;;;1.88;;
61741;SDS011;47650;49.848;9.620;2023-07-29T12:27:47;2.03;;;1.83;;
61741;SDS011;47650;49.848;9.620;2023-07-29T12:30:14;1.98;;;1.80;;
61741;SDS011;47650;49.848;9.620;2023-07-29T12:32:46;2.97;;;1.80;;
61741;SDS011;47650;49.848;9.620;2023-07-29T12:35:11;3.53;;;1.65;;
61741;SDS011;47650;49.848;9.620;2023-07-29T12:37:37;2.75;;;1.77;;
61741;SDS011;47650;49.848;9.620;2023-07-29T12:40:04;2.75;;;1.77;;
61741;SDS011;47650;49.848;9.620;2023-07-29T12:42:29;2.00;;;1.55;;
61741;SDS011;47650;49.848;9.620;2023-07-29T12:44:55;2.30;;;1.80;;
61741;SDS011;47650;49.848;9.620;2023-07-29T12:47:22;2.63;;;1.95;;
61741;SDS011;47650;49.848;9.620;2023-07-29T12:49:47;2.33;;;2.13;;
61741;SDS011;47650;49.848;9.620;2023-07-29T12:52:15;4.70;;;1.90;;
61741;SDS011;47650;49.848;9.620;2023-07-29T12:54:41;1.80;;;1.70;;
61741;SDS011;47650;49.848;9.620;2023-07-29T12:57:09;1.40;;;1.30;;
61741;SDS011;47650;49.848;9.620;2023-07-29T12:59:34;2.77;;;1.80;;
61741;SDS011;47650;49.848;9.620;2023-07-29T13:02:00;2.25;;;1.70;;
61741;SDS011;47650;49.848;9.620;2023-07-29T13:04:31;2.22;;;1.80;;
61741;SDS011;47650;49.848;9.620;2023-07-29T13:06:57;2.58;;;1.70;;
61741;SDS011;47650;49.848;9.620;2023-07-29T13:09:24;2.00;;;1.90;;
61741;SDS011;47650;49.848;9.620;2023-07-29T13:11:50;2.08;;;1.88;;
61741;SDS011;47650;49.848;9.620;2023-07-29T13:14:16;1.90;;;1.80;;
61741;SDS011;47650;49.848;9.620;2023-07-29T13:16:44;1.73;;;1.60;;
61741;SDS011;47650;49.848;9.620;2023-07-29T13:19:11;2.38;;;1.75;;
61741;SDS011;47650;49.848;9.620;2023-07-29T13:21:37;2.05;;;1.63;;
61741;SDS011;47650;49.848;9.620;2023-07-29T13:24:03;3.42;;;2.25;;
61741;SDS011;47650;49.848;9.620;2023-07-29T13:26:28;2.00;;;1.80;;
61741;SDS011;47650;49.848;9.620;2023-07-29T13:28:54;1.97;;;1.60;;
61741;SDS011;47650;49.848;9.620;2023-07-29T13:31:20;1.90;;;1.63;;
61741;SDS011;47650;49.848;9.620;2023-07-29T13:33:45;4.50;;;1.97;;
61741;SDS011;47650;49.848;9.620;2023-07-29T13:36:12;1.60;;;1.50;;
61741;SDS011;47650;49.848;9.620;2023-07-29T13:38:39;1.73;;;1.52;;
61741;SDS011;47650;49.848;9.620;2023-07-29T13:41:04;2.03;;;1.85;;
61741;SDS011;47650;49.848;9.620;2023-07-29T13:43:29;2.00;;;1.70;;
61741;SDS011;47650;49.848;9.620;2023-07-29T13:45:55;2.65;;;1.80;;
61741;SDS011;47650;49.848;9.620;2023-07-29T13:48:20;2.70;;;1.70;;
61741;SDS011;47650;49.848;9.620;2023-07-29T13:50:47;2.17;;;1.57;;
61741;SDS011;47650;49.848;9.620;2023-07-29T13:53:20;2.85;;;2.00;;
61741;SDS011;47650;49.848;9.620;2023-07-29T13:55:45;2.13;;;1.90;;
61741;SDS011;47650;49.848;9.620;2023-07-29T13:58:10;5.40;;;1.95;;
61741;SDS011;47650;49.848;9.620;2023-07-29T14:00:35;3.35;;;2.10;;
61741;SDS011;47650;49.848;9.620;2023-07-29T14:03:01;2.07;;;1.83;;
61741;SDS011;47650;49.848;9.620;2023-07-29T14:05:26;5.18;;;2.25;;
61741;SDS011;47650;49.848;9.620;2023-07-29T14:07:53;3.65;;;1.80;;
61741;SDS011;47650;49.848;9.620;2023-07-29T14:10:18;2.28;;;2.08;;
61741;SDS011;47650;49.848;9.620;2023-07-29T14:12:44;1.85;;;1.75;;
61741;SDS011;47650;49.848;9.620;2023-07-29T14:15:09;4.30;;;1.70;;
61741;SDS011;47650;49.848;9.620;2023-07-29T14:17:35;3.83;;;1.45;;
61741;SDS011;47650;49.848;9.620;2023-07-29T14:20:03;3.35;;;1.80;;
61741;SDS011;47650;49.848;9.620;2023-07-29T14:22:29;2.30;;;1.98;;
61741;SDS011;47650;49.848;9.620;2023-07-29T14:24:57;3.33;;;1.80;;
61741;SDS011;47650;49.848;9.620;2023-07-29T14:27:24;2.28;;;1.95;;
61741;SDS011;47650;49.848;9.620;2023-07-29T14:29:49;6.40;;;1.90;;
61741;SDS011;47650;49.848;9.620;2023-07-29T14:32:14;1.83;;;1.73;;
61741;SDS011;47650;49.848;9.620;2023-07-29T14:34:41;2.63;;;1.90;;
61741;SDS011;47650;49.848;9.620;2023-07-29T14:37:06;1.87;;;1.70;;
61741;SDS011;47650;49.848;9.620;2023-07-29T14:39:32;1.80;;;1.70;;
61741;SDS011;47650;49.848;9.620;2023-07-29T14:41:58;3.58;;;1.65;;
61741;SDS011;47650;49.848;9.620;2023-07-29T14:44:23;2.53;;;1.80;;
61741;SDS011;47650;49.848;9.620;2023-07-29T14:46:48;1.90;;;1.70;;